METAR Data
IDs: Format: Raw Decoded Include TAF

Data at: 1119 UTC 26 Sep 2018

K6I2 261055Z AUTO 20005KT 9SM FEW004 SCT017 21/21 A3002 RMK AO2
K6I2 261035Z AUTO 21005KT 8SM SCT003 BKN019 21/21 A3002 RMK AO2
K6I2 261015Z AUTO 19005KT 8SM SCT004 BKN019 22/22 A3001 RMK AO2
K6I2 260955Z AUTO 20005KT 10SM -RA SCT022 SCT050 22/21 A3000 RMK AO2
K6I2 260935Z AUTO 19006KT 7SM FEW050 22/21 A2999 RMK AO2
K6I2 260915Z AUTO 18005KT 10SM FEW055 22/22 A2999 RMK AO2
K6I2 260855Z AUTO 22005KT 7SM FEW055 FEW070 22/22 A3000 RMK AO2
K6I2 260835Z AUTO 20005KT 10SM CLR 22/22 A2999 RMK AO2
K6I2 260815Z AUTO 21006KT 10SM FEW013 SCT020 SCT027 23/22 A3000 RMK AO2
K6I2 260755Z AUTO 21008KT 10SM SCT015 BKN022 BKN027 23/22 A3000 RMK AO2
K6I2 260735Z AUTO 20008KT 10SM SCT014 SCT022 BKN028 23/22 A3000 RMK AO2
K6I2 260715Z AUTO 19008KT 10SM FEW010 BKN014 BKN020 23/22 A3001 RMK AO2
K6I2 260655Z AUTO 19009KT 10SM BKN011 OVC016 23/22 A3001 RMK AO2
K6I2 260635Z AUTO 18011G16KT 10SM OVC011 23/22 A3002 RMK AO2
K6I2 260615Z AUTO 18010G16KT 10SM OVC011 23/22 A3002 RMK AO2
K6I2 260555Z AUTO 18009G15KT 10SM BKN011 23/22 A3003 RMK AO2
K6I2 260535Z AUTO 18008KT 10SM SCT011 SCT090 23/22 A3004 RMK AO2
K6I2 260515Z AUTO 19007KT 10SM SCT090 23/22 A3003 RMK AO2
K6I2 260455Z AUTO 19009KT 10SM FEW021 23/22 A3003 RMK AO2
K6I2 260435Z AUTO 18009KT 10SM FEW011 23/22 A3002 RMK AO2
K6I2 260415Z AUTO 17010KT 10SM CLR 23/22 A3003 RMK AO2
K6I2 260355Z AUTO 17011G16KT 10SM FEW011 23/22 A3003 RMK AO2
K6I2 260335Z AUTO 18009KT 10SM CLR 23/22 A3003 RMK AO2
K6I2 260315Z AUTO 17009KT 10SM CLR 23/22 A3003 RMK AO2
K6I2 260255Z AUTO 17009KT 10SM CLR 23/22 A3003 RMK AO2
K6I2 260235Z AUTO 17007KT 10SM CLR 23/22 A3003 RMK AO2
K6I2 260215Z AUTO 17007KT 10SM CLR 23/22 A3002 RMK AO2
K6I2 260155Z AUTO 17007KT 10SM CLR 23/22 A3003 RMK AO2
K6I2 260135Z AUTO 18006KT 10SM CLR 23/22 A3003 RMK AO2
K6I2 260115Z AUTO 16007KT 10SM CLR 23/23 A3001 RMK AO2
K6I2 260055Z AUTO 15009KT 5SM BR FEW029 FEW046 SCT065 23/23 A3000 RMK AO2
K6I2 260035Z AUTO 16008KT 6SM BR CLR 23/23 A3002 RMK AO2
K6I2 260015Z AUTO 16007KT 9SM CLR 23/23 A3002 RMK AO2
K6I2 252355Z AUTO 16005KT 9SM FEW055 23/23 A3002 RMK AO2
K6I2 252335Z AUTO 15006KT 8SM FEW028 SCT049 23/23 A3002 RMK AO2
K6I2 252315Z AUTO 16006KT 8SM SCT028 SCT047 23/23 A3002 RMK AO2
K6I2 252255Z AUTO 14006KT 8SM FEW046 24/23 A3000 RMK AO2
K6I2 252235Z AUTO 17003KT 7SM SCT018 SCT028 BKN046 24/23 A3002 RMK AO2
K6I2 252215Z AUTO 16004KT 3SM RA SCT019 BKN028 BKN039 24/23 A3002 RMK AO2
K6I2 252155Z AUTO 17005KT 9SM SCT041 SCT050 BKN075 24/22 A3002 RMK AO2
K6I2 252135Z AUTO 18006KT 9SM FEW019 SCT045 BKN055 24/22 A3001 RMK AO2
K6I2 252115Z AUTO 18008KT 9SM FEW024 SCT046 BKN050 25/22 A3002 RMK AO2
K6I2 252055Z AUTO 18009KT 9SM BKN025 BKN031 BKN065 25/22 A3001 RMK AO2
K6I2 252035Z AUTO 18008KT 10SM SCT024 BKN033 BKN044 25/22 A3001 RMK AO2
K6I2 252015Z AUTO 20013KT 10SM SCT020 BKN037 BKN043 25/22 A3002 RMK AO2
K6I2 251955Z AUTO 20013G21KT 170V230 10SM BKN019 BKN024 OVC042 26/22 A3002 RMK AO2
K6I2 251935Z AUTO 18009KT 9SM SCT017 SCT024 BKN055 26/23 A3002 RMK AO2
K6I2 251915Z AUTO 18009KT 9SM SCT055 25/23 A3003 RMK AO2
K6I2 251855Z AUTO 18008KT 9SM FEW012 SCT032 24/23 A3005 RMK AO2
K6I2 251835Z AUTO 18007KT 3/4SM BR BKN004 BKN012 OVC020 23/23 A3007 RMK AO2
K6I2 251815Z AUTO 20011KT 1 1/2SM BR BKN015 BKN022 OVC029 23/22 A3008 RMK AO2
K6I2 251755Z AUTO 20012G15KT 3SM HZ FEW011 SCT022 BKN027 25/22 A3007 RMK AO2
K6I2 251735Z AUTO 19010KT 3SM HZ OVC025 25/22 A3008 RMK AO2
K6I2 251715Z AUTO 19008KT 10SM BKN025 BKN036 OVC048 25/21 A3008 RMK AO2
K6I2 251655Z AUTO 17011KT 9SM SCT023 BKN031 OVC050 25/21 A3008 RMK AO2
K6I2 251635Z AUTO 19011G14KT 10SM BKN022 BKN031 OVC043 25/21 A3009 RMK AO2
K6I2 251615Z AUTO 18014G19KT 9SM BKN022 BKN027 OVC037 25/21 A3009 RMK AO2
K6I2 251555Z AUTO 19011G20KT 9SM SCT020 OVC034 25/21 A3008 RMK AO2
K6I2 251535Z AUTO 19015G21KT 10SM BKN020 BKN026 OVC034 24/20 A3008 RMK AO2
K6I2 251515Z AUTO 19014G20KT 10SM BKN020 24/20 A3010 RMK AO2
K6I2 251455Z AUTO 19016G20KT 10SM SCT020 24/20 A3010 RMK AO2
K6I2 251435Z AUTO 18014G19KT 10SM CLR 24/20 A3008 RMK AO2
K6I2 251415Z AUTO 18013G19KT 9SM FEW029 SCT110 24/20 A3009 RMK AO2
K6I2 251355Z AUTO 18010G17KT 10SM FEW036 BKN110 23/20 A3009 RMK AO2
K6I2 251335Z AUTO 17008KT 10SM SCT029 BKN110 22/20 A3009 RMK AO2
K6I2 251315Z AUTO 17007KT 10SM OVC029 21/20 A3009 RMK AO2
K6I2 251255Z AUTO 18008KT 10SM BKN031 BKN080 21/20 A3010 RMK AO2
K6I2 251235Z AUTO 17007KT 10SM SCT031 SCT040 BKN080 21/20 A3009 RMK AO2
K6I2 251215Z AUTO 17008KT 10SM FEW070 21/20 A3010 RMK AO2
K6I2 251155Z AUTO 16009KT 10SM FEW031 FEW039 FEW070 21/20 A3009 RMK AO2
K6I2 251135Z AUTO 16007KT 9SM FEW030 BKN039 BKN050 21/20 A3009 RMK AO2
K6I2 251115Z AUTO 17008KT 10SM FEW032 SCT046 21/20 A3008 RMK AO2
K6I2 251055Z AUTO 17007KT 10SM FEW045 SCT060 21/20 A3008 RMK AO2
K6I2 251035Z AUTO 17007KT 10SM FEW060 21/20 A3008 RMK AO2
K6I2 251015Z AUTO 17008KT 10SM CLR 22/20 A3008 RMK AO2
K6I2 250955Z AUTO 17007KT 10SM CLR 21/20 A3007 RMK AO2
K6I2 250935Z AUTO 17008KT 10SM CLR 21/20 A3006 RMK AO2
K6I2 250915Z AUTO 17008KT 10SM CLR 21/20 A3006 RMK AO2
K6I2 250855Z AUTO 16012KT 10SM FEW110 21/20 A3006 RMK AO2
K6I2 250835Z AUTO 17009KT 10SM SCT120 21/20 A3006 RMK AO2
K6I2 250815Z AUTO 17009KT 10SM BKN020 BKN110 21/20 A3006 RMK AO2
K6I2 250755Z AUTO 17009KT 10SM BKN020 BKN100 21/20 A3007 RMK AO2
K6I2 250735Z AUTO 17010G15KT 10SM BKN090 21/20 A3006 RMK AO2
K6I2 250715Z AUTO 16010KT 10SM SCT090 21/20 A3007 RMK AO2
K6I2 250655Z AUTO 17010KT 10SM CLR 21/20 A3007 RMK AO2
K6I2 250635Z AUTO 17008KT 10SM FEW090 21/20 A3007 RMK AO2
K6I2 250615Z AUTO 17009KT 10SM CLR 21/20 A3007 RMK AO2
K6I2 250555Z AUTO 16009KT 10SM FEW090 21/20 A3007 RMK AO2
K6I2 250535Z AUTO 16009KT 10SM FEW090 21/20 A3007 RMK AO2
K6I2 250515Z AUTO 16009KT 10SM FEW100 21/20 A3007 RMK AO2
K6I2 250455Z AUTO 16008KT 10SM CLR 20/20 A3007 RMK AO2
K6I2 250435Z AUTO 16007KT 10SM CLR 20/20 A3008 RMK AO2
K6I2 250415Z AUTO 16007KT 10SM CLR 20/20 A3008 RMK AO2
K6I2 250355Z AUTO 16008KT 10SM CLR 20/20 A3008 RMK AO2
K6I2 250335Z AUTO 15006KT 10SM CLR 20/20 A3008 RMK AO2
K6I2 250315Z AUTO 16005KT 10SM CLR 20/20 A3008 RMK AO2
K6I2 250255Z AUTO 17006KT 10SM CLR 20/20 A3008 RMK AO2
K6I2 250235Z AUTO 16006KT 10SM CLR 20/20 A3007 RMK AO2
K6I2 250215Z AUTO 16006KT 10SM CLR 20/20 A3007 RMK AO2
K6I2 250155Z AUTO 16007KT 10SM FEW012 20/20 A3006 RMK AO2
K6I2 250135Z AUTO 16005KT 10SM CLR 20/20 A3006 RMK AO2
K6I2 250115Z AUTO 16007KT 10SM CLR 20/20 A3006 RMK AO2
K6I2 250055Z AUTO 17008KT 10SM CLR 20/20 A3006 RMK AO2
K6I2 250035Z AUTO 16006KT 10SM CLR 20/20 A3005 RMK AO2
K6I2 250015Z AUTO 17009KT 10SM CLR 20/20 A3004 RMK AO2
K6I2 242355Z AUTO 16009KT 10SM SCT012 20/20 A3004 RMK AO2
K6I2 242335Z AUTO 16008KT 9SM BKN012 20/20 A3004 RMK AO2